Time;durP1;ratioP1;P1;durP2;ratioP2;P2;SDS_P1;SDS_P2;PMS_P1;PMS_P2;Temp;Humidity;BMP_temperature;BMP_pressure;BME280_temperature;BME280_humidity;BME280_pressure;Samples;Min_cycle;Max_cycle;Signal;HPM_P1;HPM_P2
2023/06/27 00:01:39;;;;;;;7.72;3.10;;;;;;;;;;4957324;28;20035;-83
2023/06/27 00:04:08;;;;;;;6.60;2.92;;;;;;;;;;4955440;29;20035;-83
2023/06/27 00:06:37;;;;;;;5.38;2.80;;;;;;;;;;4953110;29;20513;-83
2023/06/27 00:09:05;;;;;;;6.00;2.72;;;;;;;;;;4969182;28;20047;-83
2023/06/27 00:11:31;;;;;;;4.72;2.55;;;;;;;;;;4966160;28;20100;-83
2023/06/27 00:13:58;;;;;;;5.57;2.75;;;;;;;;;;4956916;28;20066;-83
2023/06/27 00:16:27;;;;;;;5.13;2.65;;;;;;;;;;4954542;28;20043;-83
2023/06/27 00:18:53;;;;;;;6.72;2.95;;;;;;;;;;4953632;29;20039;-83
2023/06/27 00:21:18;;;;;;;7.38;2.40;;;;;;;;;;4956904;28;20030;-83
2023/06/27 00:23:44;;;;;;;5.47;2.75;;;;;;;;;;4956049;28;20035;-83
2023/06/27 00:26:12;;;;;;;7.93;2.60;;;;;;;;;;4955294;28;20027;-83
2023/06/27 00:28:37;;;;;;;8.60;2.47;;;;;;;;;;4953987;28;20053;-83
2023/06/27 00:31:03;;;;;;;6.10;2.58;;;;;;;;;;4955176;28;20035;-83
2023/06/27 00:33:28;;;;;;;4.78;2.47;;;;;;;;;;4956250;28;20035;-83
2023/06/27 00:35:57;;;;;;;3.83;2.22;;;;;;;;;;4956007;28;20111;-83
2023/06/27 00:38:22;;;;;;;6.18;2.38;;;;;;;;;;4966034;28;20036;-83
2023/06/27 00:40:48;;;;;;;7.35;2.47;;;;;;;;;;4955082;28;20059;-83
2023/06/27 00:43:13;;;;;;;9.23;2.60;;;;;;;;;;4955051;29;20038;-83
2023/06/27 00:45:39;;;;;;;4.35;2.40;;;;;;;;;;4955581;28;20556;-83
2023/06/27 00:48:04;;;;;;;4.68;2.22;;;;;;;;;;4948222;28;20039;-83
2023/06/27 00:50:31;;;;;;;5.93;2.20;;;;;;;;;;4956330;28;20062;-83
2023/06/27 00:52:59;;;;;;;5.35;2.05;;;;;;;;;;4951833;28;20130;-83
2023/06/27 00:55:25;;;;;;;4.82;2.17;;;;;;;;;;4955989;28;20031;-82
2023/06/27 00:57:50;;;;;;;5.35;2.38;;;;;;;;;;4955437;28;20028;-83
2023/06/27 01:00:18;;;;;;;8.27;2.03;;;;;;;;;;4954815;28;20095;-83
2023/06/27 01:02:47;;;;;;;6.50;2.10;;;;;;;;;;4956250;28;20039;-83
2023/06/27 01:05:15;;;;;;;3.17;2.10;;;;;;;;;;4951824;28;20500;-83
2023/06/27 01:07:50;;;;;;;4.78;2.25;;;;;;;;;;4952630;28;20038;-83
2023/06/27 01:10:35;;;;;;;6.53;2.20;;;;;;;;;;4954690;28;20042;-83
2023/06/27 01:13:10;;;;;;;5.10;2.10;;;;;;;;;;4955200;29;20057;-83
2023/06/27 01:15:36;;;;;;;5.05;2.20;;;;;;;;;;4952546;29;20031;-83
2023/06/27 01:18:04;;;;;;;7.47;2.05;;;;;;;;;;4954899;28;20059;-83
2023/06/27 01:20:32;;;;;;;6.88;2.08;;;;;;;;;;4955777;28;20031;-83
2023/06/27 01:23:24;;;;;;;3.58;1.70;;;;;;;;;;4948685;28;20050;-82
2023/06/27 01:26:01;;;;;;;8.15;2.00;;;;;;;;;;4954188;29;20058;-83
2023/06/27 01:28:26;;;;;;;3.85;1.77;;;;;;;;;;4956427;28;20470;-83
2023/06/27 01:30:52;;;;;;;4.20;1.75;;;;;;;;;;4954589;28;20485;-83
2023/06/27 01:33:20;;;;;;;4.25;1.70;;;;;;;;;;4954223;28;20101;-82
2023/06/27 01:35:55;;;;;;;5.88;1.70;;;;;;;;;;4940070;29;20027;-81
2023/06/27 01:38:32;;;;;;;2.25;1.60;;;;;;;;;;4947867;29;20035;-82
2023/06/27 01:40:59;;;;;;;7.80;1.85;;;;;;;;;;4944065;29;20490;-83
2023/06/27 01:43:27;;;;;;;6.43;1.80;;;;;;;;;;4959278;28;20504;-83
2023/06/27 01:45:53;;;;;;;3.35;1.60;;;;;;;;;;4941740;29;20043;-83
2023/06/27 01:48:19;;;;;;;4.93;1.70;;;;;;;;;;4943971;29;20111;-83
2023/06/27 01:50:44;;;;;;;7.07;1.70;;;;;;;;;;4959347;28;20067;-83
2023/06/27 01:53:10;;;;;;;4.72;1.88;;;;;;;;;;4957986;29;20039;-83
2023/06/27 01:55:35;;;;;;;3.50;1.60;;;;;;;;;;4959217;28;20054;-83
2023/06/27 01:58:01;;;;;;;5.50;1.50;;;;;;;;;;4957383;29;20417;-83
2023/06/27 02:00:28;;;;;;;6.90;1.80;;;;;;;;;;4954428;29;20040;-83
2023/06/27 02:02:54;;;;;;;5.20;1.60;;;;;;;;;;4958063;29;20035;-83
2023/06/27 02:05:19;;;;;;;3.97;1.70;;;;;;;;;;4959251;28;20074;-83
2023/06/27 02:07:45;;;;;;;6.18;1.63;;;;;;;;;;4957528;28;20103;-83
2023/06/27 02:10:11;;;;;;;7.32;1.98;;;;;;;;;;4958732;28;20063;-82
2023/06/27 02:12:38;;;;;;;3.88;1.73;;;;;;;;;;4957821;29;20050;-83
2023/06/27 02:15:04;;;;;;;2.95;1.63;;;;;;;;;;4956301;29;20055;-82
2023/06/27 02:17:30;;;;;;;4.78;1.85;;;;;;;;;;4957767;29;20501;-82
2023/06/27 02:19:56;;;;;;;5.40;1.60;;;;;;;;;;4957146;28;20074;-83
2023/06/27 02:22:21;;;;;;;4.80;1.85;;;;;;;;;;4957216;28;20031;-83
2023/06/27 02:24:47;;;;;;;9.90;1.90;;;;;;;;;;4958452;28;20035;-83
2023/06/27 02:27:13;;;;;;;3.58;1.58;;;;;;;;;;4958641;28;20043;-82
2023/06/27 02:29:39;;;;;;;4.82;1.70;;;;;;;;;;4940422;29;20038;-83
2023/06/27 02:32:05;;;;;;;3.13;1.77;;;;;;;;;;4955691;28;20031;-81
2023/06/27 02:34:30;;;;;;;5.28;1.70;;;;;;;;;;4957768;28;20047;-82
2023/06/27 02:36:56;;;;;;;5.57;1.88;;;;;;;;;;4957873;28;20031;-81
2023/06/27 02:39:25;;;;;;;3.38;1.85;;;;;;;;;;4957508;28;20051;-82
2023/06/27 02:41:50;;;;;;;4.20;1.60;;;;;;;;;;4940738;29;20555;-82
2023/06/27 02:44:15;;;;;;;3.70;1.50;;;;;;;;;;4957114;29;20437;-83
2023/06/27 02:46:41;;;;;;;5.30;1.60;;;;;;;;;;4956100;28;20032;-83
2023/06/27 02:49:06;;;;;;;7.72;1.65;;;;;;;;;;4967742;28;20063;-82
2023/06/27 02:51:32;;;;;;;4.10;1.70;;;;;;;;;;4955782;29;20392;-82
2023/06/27 02:53:57;;;;;;;5.75;1.70;;;;;;;;;;4956112;28;20042;-81
2023/06/27 02:56:23;;;;;;;5.90;1.70;;;;;;;;;;4954436;28;20043;-81
2023/06/27 02:58:48;;;;;;;5.00;1.50;;;;;;;;;;4942218;29;20035;-81
2023/06/27 03:01:15;;;;;;;3.47;1.80;;;;;;;;;;4942196;28;20028;-82
2023/06/27 03:03:43;;;;;;;6.65;1.60;;;;;;;;;;4955933;28;20019;-82
2023/06/27 03:06:09;;;;;;;8.18;1.60;;;;;;;;;;4955919;28;20380;-82
2023/06/27 03:08:37;;;;;;;4.20;1.50;;;;;;;;;;4955569;28;20496;-81
2023/06/27 03:11:04;;;;;;;5.25;1.63;;;;;;;;;;4948282;28;20058;-81
2023/06/27 03:13:29;;;;;;;4.75;1.70;;;;;;;;;;4955588;28;20477;-81
2023/06/27 03:15:55;;;;;;;4.60;1.50;;;;;;;;;;4945034;28;20024;-81
2023/06/27 03:18:22;;;;;;;3.67;1.60;;;;;;;;;;4939711;28;20065;-81
2023/06/27 03:20:47;;;;;;;6.35;1.77;;;;;;;;;;4955606;28;20027;-83
2023/06/27 03:23:13;;;;;;;8.75;2.20;;;;;;;;;;4956885;28;20090;-82
2023/06/27 03:25:38;;;;;;;5.50;1.42;;;;;;;;;;4955749;28;20396;-82
2023/06/27 03:28:04;;;;;;;5.10;1.60;;;;;;;;;;4955084;28;20038;-81
2023/06/27 03:30:37;;;;;;;4.25;1.60;;;;;;;;;;4954636;29;20508;-81
2023/06/27 03:33:02;;;;;;;3.92;1.55;;;;;;;;;;4955618;28;20059;-81
2023/06/27 03:35:28;;;;;;;5.75;1.60;;;;;;;;;;4954804;29;20042;-81
2023/06/27 03:37:54;;;;;;;5.15;2.08;;;;;;;;;;4955145;28;20117;-81
2023/06/27 03:40:21;;;;;;;6.47;2.00;;;;;;;;;;4955557;28;20504;-83
2023/06/27 03:42:46;;;;;;;9.52;2.00;;;;;;;;;;4964354;28;20195;-82
2023/06/27 03:45:12;;;;;;;6.05;1.80;;;;;;;;;;4956675;28;20035;-83
2023/06/27 03:47:38;;;;;;;5.65;2.00;;;;;;;;;;4954721;29;20043;-82
2023/06/27 03:50:06;;;;;;;6.13;1.92;;;;;;;;;;4955055;28;20031;-81
2023/06/27 03:52:33;;;;;;;4.55;1.90;;;;;;;;;;4955242;28;20121;-81
2023/06/27 03:55:01;;;;;;;5.13;2.15;;;;;;;;;;4955534;28;20042;-82
2023/06/27 03:57:26;;;;;;;5.90;1.80;;;;;;;;;;4955076;29;20109;-81
2023/06/27 03:59:52;;;;;;;4.50;2.00;;;;;;;;;;4955966;28;20031;-83
2023/06/27 04:02:17;;;;;;;4.63;1.85;;;;;;;;;;4941300;28;20123;-83
2023/06/27 04:04:43;;;;;;;4.68;1.80;;;;;;;;;;4953813;28;20075;-83
2023/06/27 04:07:08;;;;;;;6.05;1.63;;;;;;;;;;4953754;29;20067;-81
2023/06/27 04:09:34;;;;;;;5.78;1.90;;;;;;;;;;4938185;29;20027;-81
2023/06/27 04:12:00;;;;;;;5.88;1.88;;;;;;;;;;4951499;28;20507;-82
2023/06/27 04:14:25;;;;;;;9.93;1.67;;;;;;;;;;4963349;28;20472;-81
2023/06/27 04:16:51;;;;;;;5.35;2.03;;;;;;;;;;4954982;28;20035;-84
2023/06/27 04:19:17;;;;;;;5.10;2.13;;;;;;;;;;4953686;29;20031;-82
2023/06/27 04:21:42;;;;;;;8.38;2.08;;;;;;;;;;4953677;28;20085;-82
2023/06/27 04:24:08;;;;;;;5.38;2.28;;;;;;;;;;4937534;28;20178;-82
2023/06/27 04:26:34;;;;;;;6.75;2.15;;;;;;;;;;4950522;29;20028;-81
2023/06/27 04:28:59;;;;;;;5.55;2.10;;;;;;;;;;4954922;28;20047;-81
2023/06/27 04:31:25;;;;;;;4.15;2.00;;;;;;;;;;4955247;28;20035;-81
2023/06/27 04:33:55;;;;;;;2.72;1.70;;;;;;;;;;4955469;28;20063;-82
2023/06/27 04:36:24;;;;;;;8.32;2.17;;;;;;;;;;4955329;28;20106;-83
2023/06/27 04:38:50;;;;;;;8.30;1.95;;;;;;;;;;4965014;28;20035;-82
2023/06/27 04:41:15;;;;;;;6.00;1.95;;;;;;;;;;4955279;28;20511;-83
2023/06/27 04:43:42;;;;;;;5.63;1.80;;;;;;;;;;4963895;28;20035;-81
2023/06/27 04:46:07;;;;;;;5.20;1.70;;;;;;;;;;4955266;28;20039;-81
2023/06/27 04:48:33;;;;;;;5.53;2.35;;;;;;;;;;4953068;28;20074;-82
2023/06/27 04:50:58;;;;;;;3.88;1.80;;;;;;;;;;4951650;28;20034;-81
2023/06/27 04:53:24;;;;;;;3.47;1.70;;;;;;;;;;4951657;28;20044;-82
2023/06/27 04:55:51;;;;;;;3.45;1.75;;;;;;;;;;4954895;28;20036;-82
2023/06/27 04:58:18;;;;;;;4.75;1.92;;;;;;;;;;4954576;28;20035;-82
2023/06/27 05:00:46;;;;;;;4.55;1.90;;;;;;;;;;4953087;29;20038;-81
2023/06/27 05:03:13;;;;;;;4.32;1.90;;;;;;;;;;4955151;28;20035;-80
2023/06/27 05:05:38;;;;;;;7.03;1.90;;;;;;;;;;4955113;28;20035;-80
2023/06/27 05:08:04;;;;;;;5.00;2.10;;;;;;;;;;4955165;28;20046;-80
2023/06/27 05:10:30;;;;;;;4.40;1.90;;;;;;;;;;4955761;28;20441;-80
2023/06/27 05:12:59;;;;;;;9.10;2.40;;;;;;;;;;4959236;28;20039;-82
2023/06/27 05:15:25;;;;;;;9.10;2.10;;;;;;;;;;4959210;28;20523;-82
2023/06/27 05:18:14;;;;;;;5.60;1.92;;;;;;;;;;4958955;28;20028;-82
2023/06/27 05:20:40;;;;;;;9.20;2.10;;;;;;;;;;4958000;29;20043;-82
2023/06/27 05:23:05;;;;;;;9.65;2.08;;;;;;;;;;4956161;28;20047;-82
2023/06/27 05:25:32;;;;;;;5.55;2.17;;;;;;;;;;4958275;28;20082;-81
2023/06/27 05:27:58;;;;;;;4.85;1.70;;;;;;;;;;4958864;28;20436;-80
2023/06/27 05:30:25;;;;;;;6.47;2.05;;;;;;;;;;4958794;28;20050;-81
2023/06/27 05:32:50;;;;;;;5.60;1.95;;;;;;;;;;4959333;28;20031;-81
2023/06/27 05:35:15;;;;;;;5.15;1.90;;;;;;;;;;4959292;28;20099;-80
2023/06/27 05:37:41;;;;;;;6.60;1.90;;;;;;;;;;4959561;28;20035;-82
2023/06/27 05:40:08;;;;;;;5.05;1.90;;;;;;;;;;4959531;28;20036;-82
2023/06/27 05:42:34;;;;;;;7.20;1.90;;;;;;;;;;4960037;28;20027;-82
2023/06/27 05:44:59;;;;;;;3.90;1.70;;;;;;;;;;4958922;28;20031;-80
2023/06/27 05:47:25;;;;;;;7.43;2.03;;;;;;;;;;4958948;28;20035;-80
2023/06/27 05:49:52;;;;;;;4.80;1.88;;;;;;;;;;4958737;28;20089;-82
2023/06/27 05:52:17;;;;;;;7.93;1.95;;;;;;;;;;4968062;28;20046;-81
2023/06/27 05:54:43;;;;;;;8.52;2.15;;;;;;;;;;4959316;28;20031;-82
2023/06/27 05:57:09;;;;;;;5.35;1.98;;;;;;;;;;4957712;28;20035;-82
2023/06/27 05:59:35;;;;;;;5.90;1.80;;;;;;;;;;4959569;28;20039;-82
2023/06/27 06:02:00;;;;;;;5.50;2.00;;;;;;;;;;4959295;28;20031;-80
2023/06/27 06:04:25;;;;;;;8.27;1.65;;;;;;;;;;4959644;28;20035;-80
2023/06/27 06:06:51;;;;;;;9.07;2.05;;;;;;;;;;4959423;28;20039;-80
2023/06/27 06:09:16;;;;;;;7.40;1.98;;;;;;;;;;4973297;28;20042;-80
2023/06/27 06:11:42;;;;;;;5.30;2.00;;;;;;;;;;4958193;28;20039;-82
2023/06/27 06:14:07;;;;;;;4.40;1.90;;;;;;;;;;4959364;28;20047;-82
2023/06/27 06:16:33;;;;;;;5.82;1.98;;;;;;;;;;4957528;28;20034;-82
2023/06/27 06:19:03;;;;;;;5.30;2.22;;;;;;;;;;4956508;28;20050;-81
2023/06/27 06:21:30;;;;;;;7.50;2.03;;;;;;;;;;4954238;28;20008;-80
2023/06/27 06:23:55;;;;;;;8.50;2.40;;;;;;;;;;4956487;28;20050;-81
2023/06/27 06:26:21;;;;;;;8.02;2.13;;;;;;;;;;4955997;28;20039;-80
2023/06/27 06:28:47;;;;;;;5.30;2.00;;;;;;;;;;4957481;28;20035;-80
2023/06/27 06:31:20;;;;;;;4.80;2.00;;;;;;;;;;4957874;28;20035;-81
2023/06/27 06:33:48;;;;;;;9.10;2.17;;;;;;;;;;4963899;28;20381;-81
2023/06/27 06:36:13;;;;;;;5.18;2.10;;;;;;;;;;4957443;28;20047;-82
2023/06/27 06:38:39;;;;;;;4.70;2.20;;;;;;;;;;4957104;29;20031;-80
2023/06/27 06:41:05;;;;;;;7.15;2.10;;;;;;;;;;4956181;28;20042;-80
2023/06/27 06:43:31;;;;;;;8.27;2.28;;;;;;;;;;4958122;28;20039;-80
2023/06/27 06:45:57;;;;;;;5.38;2.00;;;;;;;;;;4956095;28;20042;-79
2023/06/27 06:48:23;;;;;;;5.72;2.22;;;;;;;;;;4957787;28;20037;-80
2023/06/27 06:50:53;;;;;;;5.05;2.17;;;;;;;;;;4958220;28;20039;-82
2023/06/27 06:53:19;;;;;;;5.57;2.17;;;;;;;;;;4941265;29;20041;-82
2023/06/27 06:55:45;;;;;;;7.65;2.10;;;;;;;;;;4958089;28;20034;-81
2023/06/27 06:58:10;;;;;;;7.03;2.20;;;;;;;;;;4952800;29;20031;-80
2023/06/27 07:00:36;;;;;;;5.70;2.20;;;;;;;;;;4957741;28;20054;-80
2023/06/27 07:03:03;;;;;;;4.68;1.90;;;;;;;;;;4956303;28;20035;-80
2023/06/27 07:05:29;;;;;;;5.05;1.80;;;;;;;;;;4957537;28;20439;-80
2023/06/27 07:07:54;;;;;;;4.18;2.08;;;;;;;;;;4954166;28;20039;-81
2023/06/27 07:10:20;;;;;;;8.10;2.15;;;;;;;;;;4956247;28;20111;-83
2023/06/27 07:12:45;;;;;;;6.43;2.05;;;;;;;;;;4955894;28;20035;-82
2023/06/27 07:15:11;;;;;;;4.05;1.83;;;;;;;;;;4956377;28;20106;-81
2023/06/27 07:17:36;;;;;;;4.03;2.20;;;;;;;;;;4954766;29;20537;-81
2023/06/27 07:20:04;;;;;;;5.93;2.15;;;;;;;;;;4955541;29;20035;-81
2023/06/27 07:22:29;;;;;;;6.28;2.00;;;;;;;;;;4956617;28;20043;-81
2023/06/27 07:24:55;;;;;;;3.25;1.88;;;;;;;;;;4956730;28;20507;-81
2023/06/27 07:27:20;;;;;;;6.13;1.92;;;;;;;;;;4955448;29;20441;-82
2023/06/27 07:29:46;;;;;;;5.35;2.35;;;;;;;;;;4955676;28;20374;-82
2023/06/27 07:32:12;;;;;;;5.40;1.98;;;;;;;;;;4956507;28;20070;-83
2023/06/27 07:34:39;;;;;;;6.47;2.38;;;;;;;;;;4955005;28;20035;-83
2023/06/27 07:37:06;;;;;;;7.30;2.00;;;;;;;;;;4943333;29;20126;-80
2023/06/27 07:39:31;;;;;;;4.28;1.80;;;;;;;;;;4957036;29;20054;-83
2023/06/27 07:41:57;;;;;;;4.38;2.03;;;;;;;;;;4954978;29;20039;-81
2023/06/27 07:44:23;;;;;;;6.10;2.00;;;;;;;;;;4956741;28;20043;-83
2023/06/27 07:46:48;;;;;;;6.35;2.10;;;;;;;;;;4956199;29;20043;-84
2023/06/27 07:49:15;;;;;;;8.73;2.20;;;;;;;;;;4955011;28;20039;-84
2023/06/27 07:51:41;;;;;;;4.90;1.90;;;;;;;;;;4956989;28;20496;-83
2023/06/27 07:54:06;;;;;;;5.93;2.03;;;;;;;;;;4956947;28;20031;-82
2023/06/27 07:56:32;;;;;;;5.78;2.00;;;;;;;;;;4956790;28;20066;-83
2023/06/27 07:58:59;;;;;;;2.83;1.90;;;;;;;;;;4955040;28;20042;-82
2023/06/27 08:01:25;;;;;;;4.10;2.10;;;;;;;;;;4953149;28;20058;-84
2023/06/27 08:03:51;;;;;;;5.18;1.95;;;;;;;;;;4955408;28;20035;-84
2023/06/27 08:06:16;;;;;;;6.10;1.90;;;;;;;;;;4950846;28;20405;-84
2023/06/27 08:08:42;;;;;;;6.38;2.08;;;;;;;;;;4961614;28;20030;-82
2023/06/27 08:11:07;;;;;;;6.05;2.10;;;;;;;;;;4955332;29;20027;-82
2023/06/27 08:13:38;;;;;;;4.95;2.00;;;;;;;;;;4956222;28;20575;-83
2023/06/27 08:16:04;;;;;;;8.32;2.20;;;;;;;;;;4960982;28;20031;-81
2023/06/27 08:18:29;;;;;;;2.90;1.70;;;;;;;;;;4956994;28;20097;-83
2023/06/27 08:20:55;;;;;;;3.80;2.00;;;;;;;;;;4960524;28;20055;-82
2023/06/27 08:23:20;;;;;;;4.18;1.95;;;;;;;;;;4963717;28;20038;-82
2023/06/27 08:25:46;;;;;;;7.15;2.00;;;;;;;;;;4963657;28;20046;-81
2023/06/27 08:28:12;;;;;;;3.95;1.85;;;;;;;;;;4968208;28;20042;-81
2023/06/27 08:30:38;;;;;;;3.83;2.00;;;;;;;;;;4956824;28;20118;-82
2023/06/27 08:33:04;;;;;;;4.50;2.00;;;;;;;;;;4957276;28;20106;-83
2023/06/27 08:35:30;;;;;;;4.70;2.30;;;;;;;;;;4957118;28;20070;-83
2023/06/27 08:37:55;;;;;;;5.32;1.80;;;;;;;;;;4955560;28;20063;-82
2023/06/27 08:40:25;;;;;;;4.43;2.10;;;;;;;;;;4955286;28;20465;-82
2023/06/27 08:42:50;;;;;;;8.35;2.00;;;;;;;;;;4953167;28;20097;-83
2023/06/27 08:45:16;;;;;;;9.02;2.25;;;;;;;;;;4957284;28;20035;-83
2023/06/27 08:47:46;;;;;;;3.72;2.03;;;;;;;;;;4957304;28;20039;-82
2023/06/27 08:50:15;;;;;;;5.97;1.90;;;;;;;;;;4956489;28;20046;-82
2023/06/27 08:52:46;;;;;;;4.22;1.70;;;;;;;;;;4959176;28;20726;-83
2023/06/27 08:55:22;;;;;;;6.63;2.10;;;;;;;;;;4954657;29;20027;-84
2023/06/27 08:57:47;;;;;;;6.60;1.90;;;;;;;;;;4964593;28;20046;-83
2023/06/27 09:00:19;;;;;;;10.27;2.13;;;;;;;;;;4955659;28;20019;-82
2023/06/27 09:02:46;;;;;;;6.03;2.17;;;;;;;;;;4955018;29;20031;-84
2023/06/27 09:05:12;;;;;;;5.63;2.20;;;;;;;;;;4955702;28;20031;-81
2023/06/27 09:07:37;;;;;;;4.10;2.10;;;;;;;;;;4955052;28;20035;-81
2023/06/27 09:10:03;;;;;;;5.82;2.10;;;;;;;;;;4955158;28;20385;-82
2023/06/27 09:12:31;;;;;;;7.20;2.50;;;;;;;;;;4955235;28;20035;-82
2023/06/27 09:14:57;;;;;;;5.85;2.20;;;;;;;;;;4955504;28;20043;-83
2023/06/27 09:17:22;;;;;;;9.18;2.20;;;;;;;;;;4954367;28;20046;-81
2023/06/27 09:19:48;;;;;;;6.32;2.40;;;;;;;;;;4955878;28;20062;-82
2023/06/27 09:22:15;;;;;;;9.38;2.25;;;;;;;;;;4955734;28;20497;-81
2023/06/27 09:24:41;;;;;;;6.57;1.85;;;;;;;;;;4954512;28;20118;-80
2023/06/27 09:27:34;;;;;;;4.57;1.90;;;;;;;;;;4956598;28;20065;-81
2023/06/27 09:30:01;;;;;;;4.70;2.05;;;;;;;;;;4955707;28;20396;-80
2023/06/27 09:32:26;;;;;;;4.82;2.03;;;;;;;;;;4955766;29;20437;-80
2023/06/27 09:34:52;;;;;;;6.25;2.30;;;;;;;;;;4962134;28;20027;-81
2023/06/27 09:37:21;;;;;;;3.78;1.98;;;;;;;;;;4955841;28;20607;-81
2023/06/27 09:39:46;;;;;;;6.47;2.10;;;;;;;;;;4951491;29;20570;-80
2023/06/27 09:42:12;;;;;;;7.20;2.08;;;;;;;;;;4955793;28;20042;-80
2023/06/27 09:44:37;;;;;;;4.82;2.00;;;;;;;;;;4956046;28;20085;-79
2023/06/27 09:47:09;;;;;;;8.23;2.35;;;;;;;;;;4954086;28;20042;-81
2023/06/27 09:49:34;;;;;;;6.85;2.20;;;;;;;;;;4968739;28;20031;-80
2023/06/27 09:52:04;;;;;;;9.77;2.20;;;;;;;;;;4955873;28;20465;-81
2023/06/27 09:54:30;;;;;;;5.55;2.42;;;;;;;;;;4955322;28;20499;-81
2023/06/27 09:56:56;;;;;;;15.65;2.55;;;;;;;;;;4956711;28;20122;-81
2023/06/27 09:59:23;;;;;;;12.50;2.20;;;;;;;;;;4958237;28;20122;-81
2023/06/27 10:01:52;;;;;;;4.38;2.15;;;;;;;;;;4955877;28;20039;-80
2023/06/27 10:04:18;;;;;;;4.47;2.10;;;;;;;;;;4959094;28;20031;-81
2023/06/27 10:06:43;;;;;;;5.18;2.22;;;;;;;;;;4959583;28;20035;-80
2023/06/27 10:09:09;;;;;;;9.77;2.58;;;;;;;;;;4966540;28;20392;-81
2023/06/27 10:11:37;;;;;;;7.03;2.25;;;;;;;;;;4958048;28;20173;-81
2023/06/27 10:14:03;;;;;;;7.32;2.20;;;;;;;;;;4956046;28;20035;-81
2023/06/27 10:16:29;;;;;;;7.03;2.35;;;;;;;;;;4957354;29;20042;-81
2023/06/27 10:18:58;;;;;;;6.30;2.22;;;;;;;;;;4958528;28;20039;-80
2023/06/27 10:21:26;;;;;;;4.10;1.90;;;;;;;;;;4966092;28;20086;-80
2023/06/27 10:23:54;;;;;;;5.82;2.10;;;;;;;;;;4958430;28;20023;-80
2023/06/27 10:26:20;;;;;;;6.20;2.20;;;;;;;;;;4958487;28;20031;-80
2023/06/27 10:28:50;;;;;;;4.82;2.20;;;;;;;;;;4958881;28;20046;-80
2023/06/27 10:31:39;;;;;;;7.05;2.40;;;;;;;;;;4955798;28;20015;-80
2023/06/27 10:34:05;;;;;;;3.85;2.03;;;;;;;;;;4955443;29;20082;-80
2023/06/27 10:36:50;;;;;;;6.25;2.53;;;;;;;;;;4957654;28;20027;-81
2023/06/27 10:39:32;;;;;;;5.57;2.28;;;;;;;;;;4956909;28;20114;-80
2023/06/27 10:42:03;;;;;;;12.25;2.42;;;;;;;;;;4957389;29;20098;-82
2023/06/27 10:44:29;;;;;;;4.70;2.28;;;;;;;;;;4957038;28;20095;-80
2023/06/27 10:47:23;;;;;;;4.70;2.20;;;;;;;;;;4957308;28;20023;-81
2023/06/27 10:49:53;;;;;;;5.20;2.10;;;;;;;;;;4941553;29;20097;-83
2023/06/27 10:52:23;;;;;;;6.15;2.20;;;;;;;;;;4956193;29;20482;-83
2023/06/27 10:55:18;;;;;;;7.07;2.15;;;;;;;;;;4955757;29;20105;-83
2023/06/27 10:57:45;;;;;;;5.82;2.60;;;;;;;;;;4954383;28;20094;-83
2023/06/27 11:00:15;;;;;;;8.27;2.50;;;;;;;;;;4956927;28;20050;-82
2023/06/27 11:02:47;;;;;;;4.90;2.40;;;;;;;;;;4956404;28;20043;-82
2023/06/27 11:05:16;;;;;;;6.88;2.22;;;;;;;;;;4953303;29;20117;-84
2023/06/27 11:07:54;;;;;;;4.40;2.25;;;;;;;;;;4957261;28;20038;-83
2023/06/27 11:10:29;;;;;;;6.55;2.30;;;;;;;;;;4956617;28;20035;-84
2023/06/27 11:13:22;;;;;;;4.15;2.08;;;;;;;;;;4955748;28;20063;-84
2023/06/27 11:15:50;;;;;;;5.82;2.30;;;;;;;;;;4955008;29;20036;-84
2023/06/27 11:18:15;;;;;;;4.07;2.28;;;;;;;;;;4955189;29;20129;-83
2023/06/27 11:20:42;;;;;;;7.80;2.22;;;;;;;;;;4956030;28;20115;-83
2023/06/27 11:23:09;;;;;;;8.20;2.40;;;;;;;;;;4957386;28;20057;-85
2023/06/27 11:25:42;;;;;;;6.30;2.47;;;;;;;;;;4963636;28;20023;-82
2023/06/27 11:28:10;;;;;;;3.97;2.00;;;;;;;;;;4948342;28;20039;-85
2023/06/27 11:30:36;;;;;;;7.45;2.53;;;;;;;;;;4957629;28;20023;-85
2023/06/27 11:33:02;;;;;;;6.85;2.38;;;;;;;;;;4957317;28;20035;-84
2023/06/27 11:35:28;;;;;;;6.47;2.65;;;;;;;;;;4956512;28;20133;-84
2023/06/27 11:37:55;;;;;;;7.88;2.50;;;;;;;;;;4959511;28;20039;-84
2023/06/27 11:40:21;;;;;;;6.15;2.20;;;;;;;;;;4957699;28;20054;-83
2023/06/27 11:42:47;;;;;;;10.45;2.60;;;;;;;;;;4960991;28;20062;-83
2023/06/27 11:45:13;;;;;;;4.07;2.17;;;;;;;;;;4953640;29;20113;-83
2023/06/27 11:47:45;;;;;;;5.85;2.10;;;;;;;;;;4962628;28;20603;-84
2023/06/27 11:50:12;;;;;;;7.90;2.60;;;;;;;;;;4955506;29;20035;-84
2023/06/27 11:52:38;;;;;;;7.32;2.47;;;;;;;;;;4962330;28;20035;-82
2023/06/27 11:55:11;;;;;;;5.57;2.30;;;;;;;;;;4964835;28;20546;-82
2023/06/27 11:57:44;;;;;;;4.97;2.30;;;;;;;;;;4969347;28;20039;-85
2023/06/27 12:00:13;;;;;;;6.30;2.25;;;;;;;;;;4968372;29;20039;-84
2023/06/27 12:02:39;;;;;;;5.40;2.00;;;;;;;;;;4958652;28;20039;-89
2023/06/27 12:05:12;;;;;;;7.30;2.15;;;;;;;;;;4955907;28;20039;-87
2023/06/27 12:07:37;;;;;;;7.47;2.50;;;;;;;;;;4958342;29;20043;-88
2023/06/27 12:10:05;;;;;;;7.70;2.38;;;;;;;;;;4958952;28;20341;-88
2023/06/27 12:12:40;;;;;;;7.10;2.10;;;;;;;;;;4957219;28;20031;-88
2023/06/27 12:15:10;;;;;;;5.35;1.98;;;;;;;;;;4953055;29;20478;-87
2023/06/27 12:17:36;;;;;;;7.40;2.33;;;;;;;;;;4952100;29;20039;-79
2023/06/27 12:20:04;;;;;;;6.57;2.38;;;;;;;;;;4957801;28;20027;-84
2023/06/27 12:22:30;;;;;;;5.07;2.50;;;;;;;;;;4960177;28;20035;-86
2023/06/27 12:24:55;;;;;;;5.85;1.95;;;;;;;;;;4960844;28;20918;-86
2023/06/27 12:27:21;;;;;;;5.10;2.10;;;;;;;;;;4958844;28;20126;-86
2023/06/27 12:29:46;;;;;;;5.57;2.10;;;;;;;;;;4958645;28;20045;-86
2023/06/27 12:32:12;;;;;;;4.93;2.08;;;;;;;;;;4959520;28;20379;-85
2023/06/27 12:34:40;;;;;;;4.97;2.20;;;;;;;;;;4960292;28;20451;-86
2023/06/27 12:37:06;;;;;;;5.95;2.13;;;;;;;;;;4968079;28;20043;-87
2023/06/27 12:39:33;;;;;;;10.13;2.33;;;;;;;;;;4968599;28;20033;-87
2023/06/27 12:41:58;;;;;;;7.30;2.28;;;;;;;;;;4966922;28;20050;-84
2023/06/27 12:44:24;;;;;;;12.18;2.28;;;;;;;;;;4962333;28;20023;-87
2023/06/27 12:46:49;;;;;;;6.72;2.67;;;;;;;;;;4959952;28;20037;-87
2023/06/27 12:49:15;;;;;;;10.00;2.50;;;;;;;;;;4958072;28;20027;-87
2023/06/27 12:51:40;;;;;;;6.28;2.50;;;;;;;;;;4958691;28;20031;-87
2023/06/27 12:54:06;;;;;;;4.60;2.35;;;;;;;;;;4959605;28;20063;-86
2023/06/27 12:56:31;;;;;;;7.25;2.65;;;;;;;;;;4958465;28;20035;-85
2023/06/27 12:58:57;;;;;;;7.43;2.63;;;;;;;;;;4955769;28;20027;-85
2023/06/27 13:01:23;;;;;;;6.10;2.30;;;;;;;;;;4956142;28;20038;-86
2023/06/27 13:03:49;;;;;;;6.15;2.30;;;;;;;;;;4957405;28;20046;-86
2023/06/27 13:06:14;;;;;;;8.65;2.28;;;;;;;;;;4958404;28;20479;-86
2023/06/27 13:08:40;;;;;;;6.82;2.10;;;;;;;;;;4958871;28;20564;-85
2023/06/27 13:11:06;;;;;;;5.45;2.53;;;;;;;;;;4952613;28;20038;-85
2023/06/27 13:13:31;;;;;;;4.88;2.20;;;;;;;;;;4958880;28;20134;-85
2023/06/27 13:15:57;;;;;;;10.73;2.38;;;;;;;;;;4960626;28;20042;-85
2023/06/27 13:18:22;;;;;;;5.25;2.40;;;;;;;;;;4959685;28;20035;-88
2023/06/27 13:20:48;;;;;;;8.32;2.63;;;;;;;;;;4960512;28;20122;-88
2023/06/27 13:23:14;;;;;;;4.97;2.45;;;;;;;;;;4957153;28;20031;-87
2023/06/27 13:25:42;;;;;;;4.10;2.28;;;;;;;;;;4957708;29;20047;-88
2023/06/27 13:28:07;;;;;;;7.57;2.30;;;;;;;;;;4956137;28;20035;-88
2023/06/27 13:30:34;;;;;;;4.97;2.33;;;;;;;;;;4956945;28;20042;-88
2023/06/27 13:32:59;;;;;;;7.38;2.47;;;;;;;;;;4958786;28;20034;-86
2023/06/27 13:35:25;;;;;;;5.03;2.40;;;;;;;;;;4972021;28;20110;-83
2023/06/27 13:37:50;;;;;;;6.15;2.30;;;;;;;;;;4959462;28;20046;-83
2023/06/27 13:40:16;;;;;;;5.47;2.05;;;;;;;;;;4958768;28;20035;-83
2023/06/27 13:42:42;;;;;;;5.72;2.30;;;;;;;;;;4958733;28;20035;-83
2023/06/27 13:45:07;;;;;;;6.28;2.20;;;;;;;;;;4958444;28;20402;-82
2023/06/27 13:47:33;;;;;;;5.30;2.50;;;;;;;;;;4958843;28;20078;-82
2023/06/27 13:49:59;;;;;;;4.32;2.15;;;;;;;;;;4958282;28;20058;-83
2023/06/27 13:52:24;;;;;;;5.65;2.13;;;;;;;;;;4967336;28;20039;-84
2023/06/27 13:54:49;;;;;;;6.22;2.47;;;;;;;;;;4959031;28;20035;-83
2023/06/27 13:57:15;;;;;;;3.45;1.90;;;;;;;;;;4938130;29;20031;-84
2023/06/27 13:59:41;;;;;;;5.35;2.20;;;;;;;;;;4957220;28;20051;-82
2023/06/27 14:02:07;;;;;;;11.20;2.63;;;;;;;;;;4957904;29;20480;-83
2023/06/27 14:04:52;;;;;;;5.30;2.35;;;;;;;;;;4958296;28;20074;-82
2023/06/27 14:07:18;;;;;;;6.90;2.33;;;;;;;;;;4957259;28;20038;-82
2023/06/27 14:09:43;;;;;;;5.13;2.17;;;;;;;;;;4958492;28;20023;-82
2023/06/27 14:12:09;;;;;;;6.13;2.33;;;;;;;;;;4957224;28;20274;-81
2023/06/27 14:14:35;;;;;;;7.95;2.10;;;;;;;;;;4958846;28;20046;-83
2023/06/27 14:17:00;;;;;;;8.40;2.33;;;;;;;;;;4957112;29;20031;-83
2023/06/27 14:19:26;;;;;;;6.22;2.33;;;;;;;;;;4958246;28;20039;-82
2023/06/27 14:21:51;;;;;;;3.67;2.03;;;;;;;;;;4956163;28;20059;-81
2023/06/27 14:24:16;;;;;;;6.30;2.42;;;;;;;;;;4958066;28;20039;-83
2023/06/27 14:26:43;;;;;;;5.80;2.20;;;;;;;;;;4958551;28;20031;-82
2023/06/27 14:29:08;;;;;;;8.20;2.20;;;;;;;;;;4958156;28;20038;-83
2023/06/27 14:31:34;;;;;;;4.90;2.13;;;;;;;;;;4958525;28;20039;-81
2023/06/27 14:33:59;;;;;;;5.90;2.20;;;;;;;;;;4960286;28;20509;-83
2023/06/27 14:36:26;;;;;;;6.90;2.30;;;;;;;;;;4957141;28;20027;-83
2023/06/27 14:38:51;;;;;;;4.93;2.20;;;;;;;;;;4956419;28;20037;-83
2023/06/27 14:41:17;;;;;;;6.10;2.50;;;;;;;;;;4959064;28;20059;-83
2023/06/27 14:43:42;;;;;;;10.45;2.13;;;;;;;;;;4950356;28;20095;-84